sensor_id;sensor_type;location;lat;lon;timestamp;pressure;altitude;pressure_sealevel;temperature;humidity
46942;BME280;32676;52.630;4.896;2023-11-22T00:00:18;99916.19;;;7.16;84.83
46942;BME280;32676;52.630;4.896;2023-11-22T00:02:46;99899.81;;;7.11;84.76
46942;BME280;32676;52.630;4.896;2023-11-22T00:05:13;99898.09;;;7.10;84.70
46942;BME280;32676;52.630;4.896;2023-11-22T00:07:40;99899.00;;;7.09;84.58
46942;BME280;32676;52.630;4.896;2023-11-22T00:10:07;99882.53;;;7.07;84.49
46942;BME280;32676;52.630;4.896;2023-11-22T00:12:35;99877.41;;;7.04;84.65
46942;BME280;32676;52.630;4.896;2023-11-22T00:15:04;99861.81;;;7.02;84.66
46942;BME280;32676;52.630;4.896;2023-11-22T00:17:33;99858.44;;;6.99;84.82
46942;BME280;32676;52.630;4.896;2023-11-22T00:19:59;99849.78;;;6.97;85.13
46942;BME280;32676;52.630;4.896;2023-11-22T00:22:30;99827.59;;;6.83;85.15
46942;BME280;32676;52.630;4.896;2023-11-22T00:24:57;99848.09;;;6.96;85.33
46942;BME280;32676;52.630;4.896;2023-11-22T00:27:24;99848.09;;;6.96;85.56
46942;BME280;32676;52.630;4.896;2023-11-22T00:29:50;99853.31;;;6.96;85.57
46942;BME280;32676;52.630;4.896;2023-11-22T00:32:17;99862.03;;;6.95;85.53
46942;BME280;32676;52.630;4.896;2023-11-22T00:34:45;99868.00;;;6.98;85.59
46942;BME280;32676;52.630;4.896;2023-11-22T00:37:12;99864.56;;;6.98;85.42
46942;BME280;32676;52.630;4.896;2023-11-22T00:39:39;99866.31;;;6.97;85.34
46942;BME280;32676;52.630;4.896;2023-11-22T00:42:05;99853.31;;;6.96;85.43
46942;BME280;32676;52.630;4.896;2023-11-22T00:44:32;99856.81;;;6.95;85.69
46942;BME280;32676;52.630;4.896;2023-11-22T00:46:58;99851.72;;;6.91;85.74
46942;BME280;32676;52.630;4.896;2023-11-22T00:49:25;99831.22;;;6.79;85.90
46942;BME280;32676;52.630;4.896;2023-11-22T00:51:53;99860.34;;;6.94;85.93
46942;BME280;32676;52.630;4.896;2023-11-22T00:54:19;99858.53;;;6.96;85.87
46942;BME280;32676;52.630;4.896;2023-11-22T00:56:46;99862.91;;;6.95;85.77
46942;BME280;32676;52.630;4.896;2023-11-22T00:59:13;99858.63;;;6.92;85.87
46942;BME280;32676;52.630;4.896;2023-11-22T01:01:40;99869.81;;;6.96;85.80
46942;BME280;32676;52.630;4.896;2023-11-22T01:04:06;99865.56;;;6.94;85.59
46942;BME280;32676;52.630;4.896;2023-11-22T01:06:33;99851.81;;;6.88;85.36
46942;BME280;32676;52.630;4.896;2023-11-22T01:09:01;99856.94;;;6.91;85.48
46942;BME280;32676;52.630;4.896;2023-11-22T01:11:27;99841.34;;;6.88;85.32
46942;BME280;32676;52.630;4.896;2023-11-22T01:13:54;99836.22;;;6.85;85.22
46942;BME280;32676;52.630;4.896;2023-11-22T01:16:20;99824.19;;;6.81;85.23
46942;BME280;32676;52.630;4.896;2023-11-22T01:18:47;99810.41;;;6.76;85.16
46942;BME280;32676;52.630;4.896;2023-11-22T01:21:13;99817.25;;;6.80;85.17
46942;BME280;32676;52.630;4.896;2023-11-22T01:23:40;99806.00;;;6.78;85.02
46942;BME280;32676;52.630;4.896;2023-11-22T01:26:08;99803.50;;;6.75;84.98
46942;BME280;32676;52.630;4.896;2023-11-22T01:28:34;99782.72;;;6.72;85.00
46942;BME280;32676;52.630;4.896;2023-11-22T01:31:01;99777.59;;;6.69;84.88
46942;BME280;32676;52.630;4.896;2023-11-22T01:33:28;99757.75;;;6.63;84.85
46942;BME280;32676;52.630;4.896;2023-11-22T01:35:57;99741.44;;;6.57;84.94
46942;BME280;32676;52.630;4.896;2023-11-22T01:38:23;99714.59;;;6.53;84.81
46942;BME280;32676;52.630;4.896;2023-11-22T01:40:51;99696.59;;;6.45;84.85
46942;BME280;32676;52.630;4.896;2023-11-22T01:43:19;99684.47;;;6.44;84.96
46942;BME280;32676;52.630;4.896;2023-11-22T01:45:46;99662.09;;;6.37;84.85
46942;BME280;32676;52.630;4.896;2023-11-22T01:48:12;99632.78;;;6.29;84.82
46942;BME280;32676;52.630;4.896;2023-11-22T01:50:40;99629.28;;;6.30;84.77
46942;BME280;32676;52.630;4.896;2023-11-22T01:53:06;99617.25;;;6.26;84.72
46942;BME280;32676;52.630;4.896;2023-11-22T01:55:33;99578.59;;;6.12;84.69
46942;BME280;32676;52.630;4.896;2023-11-22T01:58:00;99582.75;;;6.18;84.62
46942;BME280;32676;52.630;4.896;2023-11-22T02:00:35;99565.50;;;6.13;84.66
46942;BME280;32676;52.630;4.896;2023-11-22T02:03:02;99549.97;;;6.10;84.61
46942;BME280;32676;52.630;4.896;2023-11-22T02:05:28;99529.31;;;6.04;84.56
46942;BME280;32676;52.630;4.896;2023-11-22T02:07:55;99508.66;;;5.98;84.70
46942;BME280;32676;52.630;4.896;2023-11-22T02:10:21;99490.50;;;5.95;84.58
46942;BME280;32676;52.630;4.896;2023-11-22T02:12:49;99479.38;;;5.90;84.61
46942;BME280;32676;52.630;4.896;2023-11-22T02:15:15;99469.06;;;5.87;84.66
46942;BME280;32676;52.630;4.896;2023-11-22T02:17:43;99456.94;;;5.86;84.68
46942;BME280;32676;52.630;4.896;2023-11-22T02:20:10;99450.25;;;5.79;84.85
46942;BME280;32676;52.630;4.896;2023-11-22T02:22:42;99432.88;;;5.77;84.85
46942;BME280;32676;52.630;4.896;2023-11-22T02:25:10;99415.66;;;5.73;84.71
46942;BME280;32676;52.630;4.896;2023-11-22T02:27:37;99398.50;;;5.68;84.76
46942;BME280;32676;52.630;4.896;2023-11-22T02:30:04;99393.31;;;5.66;84.73
46942;BME280;32676;52.630;4.896;2023-11-22T02:32:31;99377.78;;;5.63;84.92
46942;BME280;32676;52.630;4.896;2023-11-22T02:34:58;99376.09;;;5.62;84.89
46942;BME280;32676;52.630;4.896;2023-11-22T02:37:25;99359.09;;;5.52;85.06
46942;BME280;32676;52.630;4.896;2023-11-22T02:39:56;99372.69;;;5.60;85.04
46942;BME280;32676;52.630;4.896;2023-11-22T02:42:26;99366.69;;;5.58;85.15
46942;BME280;32676;52.630;4.896;2023-11-22T02:44:52;99350.25;;;5.56;85.04
46942;BME280;32676;52.630;4.896;2023-11-22T02:47:19;99346.84;;;5.54;84.93
46942;BME280;32676;52.630;4.896;2023-11-22T02:49:45;99348.66;;;5.52;85.01
46942;BME280;32676;52.630;4.896;2023-11-22T02:52:11;99334.94;;;5.47;84.89
46942;BME280;32676;52.630;4.896;2023-11-22T02:54:40;99334.84;;;5.50;84.91
46942;BME280;32676;52.630;4.896;2023-11-22T02:57:07;99324.53;;;5.47;84.97
46942;BME280;32676;52.630;4.896;2023-11-22T02:59:35;99309.88;;;5.44;84.90
46942;BME280;32676;52.630;4.896;2023-11-22T03:02:01;99291.78;;;5.39;84.72
46942;BME280;32676;52.630;4.896;2023-11-22T03:04:28;99266.31;;;5.24;84.83
46942;BME280;32676;52.630;4.896;2023-11-22T03:06:54;99279.84;;;5.34;84.82
46942;BME280;32676;52.630;4.896;2023-11-22T03:09:20;99278.94;;;5.35;85.03
46942;BME280;32676;52.630;4.896;2023-11-22T03:11:48;99277.28;;;5.32;85.04
46942;BME280;32676;52.630;4.896;2023-11-22T03:14:14;99267.88;;;5.28;85.10
46942;BME280;32676;52.630;4.896;2023-11-22T03:16:43;99278.22;;;5.31;84.92
46942;BME280;32676;52.630;4.896;2023-11-22T03:19:10;99278.22;;;5.31;84.92
46942;BME280;32676;52.630;4.896;2023-11-22T03:21:38;99300.56;;;5.37;84.92
46942;BME280;32676;52.630;4.896;2023-11-22T03:24:06;99310.94;;;5.38;84.83
46942;BME280;32676;52.630;4.896;2023-11-22T03:26:33;99317.75;;;5.43;84.61
46942;BME280;32676;52.630;4.896;2023-11-22T03:29:00;99330.03;;;5.39;84.57
46942;BME280;32676;52.630;4.896;2023-11-22T03:31:27;99317.84;;;5.39;84.61
46942;BME280;32676;52.630;4.896;2023-11-22T03:33:56;99310.06;;;5.38;84.51
46942;BME280;32676;52.630;4.896;2023-11-22T03:36:23;99293.13;;;5.26;84.44
46942;BME280;32676;52.630;4.896;2023-11-22T03:38:50;99326.44;;;5.42;84.18
46942;BME280;32676;52.630;4.896;2023-11-22T03:41:16;99319.66;;;5.37;84.30
46942;BME280;32676;52.630;4.896;2023-11-22T03:43:43;99322.31;;;5.36;84.20
46942;BME280;32676;52.630;4.896;2023-11-22T03:46:10;99331.66;;;5.42;84.26
46942;BME280;32676;52.630;4.896;2023-11-22T03:48:36;99331.66;;;5.42;84.45
46942;BME280;32676;52.630;4.896;2023-11-22T03:51:04;99324.84;;;5.37;84.67
46942;BME280;32676;52.630;4.896;2023-11-22T03:53:31;99330.06;;;5.37;84.65
46942;BME280;32676;52.630;4.896;2023-11-22T03:55:57;99329.97;;;5.41;84.87
46942;BME280;32676;52.630;4.896;2023-11-22T03:58:24;99340.38;;;5.41;85.06
46942;BME280;32676;52.630;4.896;2023-11-22T04:00:51;99317.31;;;5.30;84.90
46942;BME280;32676;52.630;4.896;2023-11-22T04:03:17;99342.06;;;5.42;85.13
46942;BME280;32676;52.630;4.896;2023-11-22T04:05:44;99354.22;;;5.43;84.92
46942;BME280;32676;52.630;4.896;2023-11-22T04:08:11;99331.19;;;5.30;84.92
46942;BME280;32676;52.630;4.896;2023-11-22T04:10:38;99357.59;;;5.45;85.02
46942;BME280;32676;52.630;4.896;2023-11-22T04:13:04;99361.94;;;5.46;85.08
46942;BME280;32676;52.630;4.896;2023-11-22T04:15:31;99369.66;;;5.47;85.17
46942;BME280;32676;52.630;4.896;2023-11-22T04:17:57;99378.34;;;5.48;85.23
46942;BME280;32676;52.630;4.896;2023-11-22T04:20:24;99383.44;;;5.51;85.29
46942;BME280;32676;52.630;4.896;2023-11-22T04:22:50;99378.53;;;5.42;85.21
46942;BME280;32676;52.630;4.896;2023-11-22T04:25:18;99398.97;;;5.54;85.14
46942;BME280;32676;52.630;4.896;2023-11-22T04:27:44;99398.97;;;5.54;85.09
46942;BME280;32676;52.630;4.896;2023-11-22T04:30:12;99406.78;;;5.54;85.32
46942;BME280;32676;52.630;4.896;2023-11-22T04:32:40;99407.63;;;5.54;85.45
46942;BME280;32676;52.630;4.896;2023-11-22T04:35:07;99409.38;;;5.54;85.48
46942;BME280;32676;52.630;4.896;2023-11-22T04:37:35;99408.53;;;5.53;85.47
46942;BME280;32676;52.630;4.896;2023-11-22T04:40:01;99414.59;;;5.54;85.64
46942;BME280;32676;52.630;4.896;2023-11-22T04:42:30;99412.88;;;5.53;85.49
46942;BME280;32676;52.630;4.896;2023-11-22T04:44:56;99415.44;;;5.54;85.71
46942;BME280;32676;52.630;4.896;2023-11-22T04:47:23;99416.41;;;5.52;85.64
46942;BME280;32676;52.630;4.896;2023-11-22T04:49:50;99418.09;;;5.53;85.79
46942;BME280;32676;52.630;4.896;2023-11-22T04:52:17;99431.03;;;5.56;85.95
46942;BME280;32676;52.630;4.896;2023-11-22T04:54:43;99437.91;;;5.58;85.86
46942;BME280;32676;52.630;4.896;2023-11-22T04:57:09;99446.50;;;5.61;85.97
46942;BME280;32676;52.630;4.896;2023-11-22T04:59:37;99461.19;;;5.63;86.07
46942;BME280;32676;52.630;4.896;2023-11-22T05:02:05;99462.94;;;5.63;86.20
46942;BME280;32676;52.630;4.896;2023-11-22T05:04:32;99461.19;;;5.63;86.18
46942;BME280;32676;52.630;4.896;2023-11-22T05:06:59;99462.03;;;5.64;86.26
46942;BME280;32676;52.630;4.896;2023-11-22T05:09:25;99448.38;;;5.57;86.25
46942;BME280;32676;52.630;4.896;2023-11-22T05:11:52;99457.78;;;5.61;86.25
46942;BME280;32676;52.630;4.896;2023-11-22T05:14:18;99456.94;;;5.61;86.16
46942;BME280;32676;52.630;4.896;2023-11-22T05:16:46;99467.41;;;5.59;86.19
46942;BME280;32676;52.630;4.896;2023-11-22T05:19:13;99456.97;;;5.59;86.17
46942;BME280;32676;52.630;4.896;2023-11-22T05:21:39;99460.47;;;5.58;86.33
46942;BME280;32676;52.630;4.896;2023-11-22T05:24:07;99461.41;;;5.57;85.84
46942;BME280;32676;52.630;4.896;2023-11-22T05:26:34;99452.66;;;5.58;86.10
46942;BME280;32676;52.630;4.896;2023-11-22T05:29:00;99450.97;;;5.57;85.93
46942;BME280;32676;52.630;4.896;2023-11-22T05:31:27;99445.75;;;5.57;85.93
46942;BME280;32676;52.630;4.896;2023-11-22T05:33:54;99447.66;;;5.52;85.86
46942;BME280;32676;52.630;4.896;2023-11-22T05:36:21;99452.78;;;5.55;85.75
46942;BME280;32676;52.630;4.896;2023-11-22T05:38:47;99456.19;;;5.57;85.84
46942;BME280;32676;52.630;4.896;2023-11-22T05:41:14;99466.63;;;5.57;85.82
46942;BME280;32676;52.630;4.896;2023-11-22T05:43:41;99470.91;;;5.58;85.83
46942;BME280;32676;52.630;4.896;2023-11-22T05:46:08;99467.59;;;5.53;85.80
46942;BME280;32676;52.630;4.896;2023-11-22T05:48:34;99486.50;;;5.60;85.66
46942;BME280;32676;52.630;4.896;2023-11-22T05:51:02;99492.44;;;5.63;85.76
46942;BME280;32676;52.630;4.896;2023-11-22T05:53:29;99482.34;;;5.54;85.71
46942;BME280;32676;52.630;4.896;2023-11-22T05:55:55;99489.03;;;5.61;85.61
46942;BME280;32676;52.630;4.896;2023-11-22T05:58:22;99489.09;;;5.60;85.49
46942;BME280;32676;52.630;4.896;2023-11-22T06:00:48;99476.16;;;5.56;85.39
46942;BME280;32676;52.630;4.896;2023-11-22T06:03:15;99474.44;;;5.57;85.32
46942;BME280;32676;52.630;4.896;2023-11-22T06:05:41;99467.53;;;5.54;85.08
46942;BME280;32676;52.630;4.896;2023-11-22T06:08:09;99458.09;;;5.52;85.13
46942;BME280;32676;52.630;4.896;2023-11-22T06:10:35;99438.25;;;5.48;84.94
46942;BME280;32676;52.630;4.896;2023-11-22T06:13:03;99443.41;;;5.49;84.97
46942;BME280;32676;52.630;4.896;2023-11-22T06:15:29;99452.97;;;5.49;84.94
46942;BME280;32676;52.630;4.896;2023-11-22T06:17:56;99440.88;;;5.48;85.02
46942;BME280;32676;52.630;4.896;2023-11-22T06:20:23;99406.72;;;5.30;84.83
46942;BME280;32676;52.630;4.896;2023-11-22T06:22:51;99427.16;;;5.43;84.65
46942;BME280;32676;52.630;4.896;2023-11-22T06:25:19;99434.03;;;5.44;84.58
46942;BME280;32676;52.630;4.896;2023-11-22T06:27:45;99429.84;;;5.39;84.53
46942;BME280;32676;52.630;4.896;2023-11-22T06:30:12;99395.44;;;5.30;84.46
46942;BME280;32676;52.630;4.896;2023-11-22T06:32:39;99401.38;;;5.35;84.52
46942;BME280;32676;52.630;4.896;2023-11-22T06:35:07;99403.09;;;5.34;84.38
46942;BME280;32676;52.630;4.896;2023-11-22T06:37:35;99398.00;;;5.31;84.32
46942;BME280;32676;52.630;4.896;2023-11-22T06:40:01;99408.31;;;5.34;84.29
46942;BME280;32676;52.630;4.896;2023-11-22T06:42:30;99406.63;;;5.33;84.20
46942;BME280;32676;52.630;4.896;2023-11-22T06:44:56;99404.84;;;5.34;84.13
46942;BME280;32676;52.630;4.896;2023-11-22T06:47:25;99407.47;;;5.34;84.21
46942;BME280;32676;52.630;4.896;2023-11-22T06:49:52;99413.50;;;5.34;84.17
46942;BME280;32676;52.630;4.896;2023-11-22T06:52:18;99370.78;;;5.15;84.19
46942;BME280;32676;52.630;4.896;2023-11-22T06:54:45;99400.72;;;5.28;83.98
46942;BME280;32676;52.630;4.896;2023-11-22T06:57:11;99390.25;;;5.30;84.13
46942;BME280;32676;52.630;4.896;2023-11-22T06:59:39;99374.06;;;5.20;84.17
46942;BME280;32676;52.630;4.896;2023-11-22T07:02:06;99399.78;;;5.29;84.17
46942;BME280;32676;52.630;4.896;2023-11-22T07:04:32;99386.19;;;5.21;84.23
46942;BME280;32676;52.630;4.896;2023-11-22T07:06:59;99406.72;;;5.30;84.35
46942;BME280;32676;52.630;4.896;2023-11-22T07:09:27;99384.28;;;5.26;84.26
46942;BME280;32676;52.630;4.896;2023-11-22T07:11:53;99384.28;;;5.26;84.32
46942;BME280;32676;52.630;4.896;2023-11-22T07:14:22;99379.19;;;5.23;84.25
46942;BME280;32676;52.630;4.896;2023-11-22T07:16:51;99363.88;;;5.14;84.23
46942;BME280;32676;52.630;4.896;2023-11-22T07:19:17;99380.03;;;5.24;84.16
46942;BME280;32676;52.630;4.896;2023-11-22T07:21:44;99370.56;;;5.21;84.26
46942;BME280;32676;52.630;4.896;2023-11-22T07:24:13;99377.50;;;5.22;84.18
46942;BME280;32676;52.630;4.896;2023-11-22T07:26:41;99380.09;;;5.22;84.24
46942;BME280;32676;52.630;4.896;2023-11-22T07:29:07;99399.06;;;5.26;84.30
46942;BME280;32676;52.630;4.896;2023-11-22T07:31:34;99404.19;;;5.27;84.11
46942;BME280;32676;52.630;4.896;2023-11-22T07:34:03;99416.28;;;5.30;84.13
46942;BME280;32676;52.630;4.896;2023-11-22T07:36:29;99425.84;;;5.29;84.11
46942;BME280;32676;52.630;4.896;2023-11-22T07:38:56;99430.94;;;5.32;84.04
46942;BME280;32676;52.630;4.896;2023-11-22T07:41:22;99436.16;;;5.32;83.98
46942;BME280;32676;52.630;4.896;2023-11-22T07:43:49;99439.56;;;5.34;84.18
46942;BME280;32676;52.630;4.896;2023-11-22T07:46:15;99473.19;;;5.42;84.15
46942;BME280;32676;52.630;4.896;2023-11-22T07:48:44;99506.00;;;5.48;84.34
46942;BME280;32676;52.630;4.896;2023-11-22T07:51:14;99537.84;;;5.56;84.10
46942;BME280;32676;52.630;4.896;2023-11-22T07:53:42;99567.13;;;5.64;84.08
46942;BME280;32676;52.630;4.896;2023-11-22T07:56:08;99593.06;;;5.67;83.82
46942;BME280;32676;52.630;4.896;2023-11-22T07:58:36;99624.03;;;5.76;83.74
46942;BME280;32676;52.630;4.896;2023-11-22T08:01:03;99645.63;;;5.82;83.43
46942;BME280;32676;52.630;4.896;2023-11-22T08:03:31;99669.78;;;5.87;83.07
46942;BME280;32676;52.630;4.896;2023-11-22T08:05:59;99703.41;;;5.96;82.71
46942;BME280;32676;52.630;4.896;2023-11-22T08:08:29;99720.66;;;6.00;82.37
46942;BME280;32676;52.630;4.896;2023-11-22T08:10:55;99733.66;;;6.02;82.22
46942;BME280;32676;52.630;4.896;2023-11-22T08:13:22;99744.84;;;6.05;82.01
46942;BME280;32676;52.630;4.896;2023-11-22T08:15:49;99767.34;;;6.09;81.61
46942;BME280;32676;52.630;4.896;2023-11-22T08:18:16;99777.66;;;6.12;81.55
46942;BME280;32676;52.630;4.896;2023-11-22T08:20:43;99792.38;;;6.15;81.49
46942;BME280;32676;52.630;4.896;2023-11-22T08:23:09;99814.00;;;6.19;81.23
46942;BME280;32676;52.630;4.896;2023-11-22T08:25:39;99837.28;;;6.25;81.11
46942;BME280;32676;52.630;4.896;2023-11-22T08:28:05;99832.97;;;6.24;80.97
46942;BME280;32676;52.630;4.896;2023-11-22T08:30:33;99821.72;;;6.22;80.75
46942;BME280;32676;52.630;4.896;2023-11-22T08:33:00;99845.97;;;6.25;80.94
46942;BME280;32676;52.630;4.896;2023-11-22T08:35:27;99860.69;;;6.28;81.09
46942;BME280;32676;52.630;4.896;2023-11-22T08:37:54;99881.34;;;6.34;80.96
46942;BME280;32676;52.630;4.896;2023-11-22T08:40:22;99890.00;;;6.36;80.90
46942;BME280;32676;52.630;4.896;2023-11-22T08:42:52;99922.81;;;6.43;80.82
46942;BME280;32676;52.630;4.896;2023-11-22T08:45:19;99933.19;;;6.46;80.69
46942;BME280;32676;52.630;4.896;2023-11-22T08:47:45;99941.81;;;6.48;80.60
46942;BME280;32676;52.630;4.896;2023-11-22T08:50:12;99955.66;;;6.50;80.64
46942;BME280;32676;52.630;4.896;2023-11-22T08:52:40;99971.25;;;6.53;80.73
46942;BME280;32676;52.630;4.896;2023-11-22T08:55:08;99974.66;;;6.56;80.61
46942;BME280;32676;52.630;4.896;2023-11-22T08:57:35;99964.31;;;6.52;80.69
46942;BME280;32676;52.630;4.896;2023-11-22T09:00:05;99984.19;;;6.57;80.58
46942;BME280;32676;52.630;4.896;2023-11-22T09:02:34;100007.59;;;6.60;80.50
46942;BME280;32676;52.630;4.896;2023-11-22T09:05:01;99993.75;;;6.58;80.61
46942;BME280;32676;52.630;4.896;2023-11-22T09:07:29;99997.22;;;6.57;80.63
46942;BME280;32676;52.630;4.896;2023-11-22T09:09:56;100010.16;;;6.61;80.71
46942;BME280;32676;52.630;4.896;2023-11-22T09:12:23;100013.63;;;6.62;80.70
46942;BME280;32676;52.630;4.896;2023-11-22T09:14:52;100034.38;;;6.66;80.93
46942;BME280;32676;52.630;4.896;2023-11-22T09:17:20;100050.81;;;6.70;80.84
46942;BME280;32676;52.630;4.896;2023-11-22T09:19:46;100076.72;;;6.76;80.93
46942;BME280;32676;52.630;4.896;2023-11-22T09:22:13;100098.34;;;6.81;80.83
46942;BME280;32676;52.630;4.896;2023-11-22T09:24:40;100125.19;;;6.86;80.96
46942;BME280;32676;52.630;4.896;2023-11-22T09:27:05;100144.22;;;6.91;80.89
46942;BME280;32676;52.630;4.896;2023-11-22T09:29:35;100164.13;;;6.96;80.77
46942;BME280;32676;52.630;4.896;2023-11-22T09:32:02;100195.28;;;7.02;80.72
46942;BME280;32676;52.630;4.896;2023-11-22T09:34:29;100224.69;;;7.08;80.74
46942;BME280;32676;52.630;4.896;2023-11-22T09:36:56;100236.88;;;7.09;80.59
46942;BME280;32676;52.630;4.896;2023-11-22T09:39:24;100247.22;;;7.13;80.29
46942;BME280;32676;52.630;4.896;2023-11-22T09:41:51;100274.06;;;7.19;80.16
46942;BME280;32676;52.630;4.896;2023-11-22T09:44:18;100284.44;;;7.22;79.83
46942;BME280;32676;52.630;4.896;2023-11-22T09:46:47;100303.44;;;7.27;79.66
46942;BME280;32676;52.630;4.896;2023-11-22T09:49:20;100289.56;;;7.25;79.29
46942;BME280;32676;52.630;4.896;2023-11-22T09:51:49;100288.75;;;7.23;79.13
46942;BME280;32676;52.630;4.896;2023-11-22T09:54:18;100295.03;;;7.16;79.18
46942;BME280;32676;52.630;4.896;2023-11-22T09:56:45;100297.34;;;7.27;79.05
46942;BME280;32676;52.630;4.896;2023-11-22T09:59:17;100324.25;;;7.30;79.15
46942;BME280;32676;52.630;4.896;2023-11-22T10:01:44;100338.13;;;7.33;79.24
46942;BME280;32676;52.630;4.896;2023-11-22T10:04:11;100371.88;;;7.42;79.32
46942;BME280;32676;52.630;4.896;2023-11-22T10:06:38;100373.63;;;7.41;79.10
46942;BME280;32676;52.630;4.896;2023-11-22T10:09:07;100404.78;;;7.49;79.13
46942;BME280;32676;52.630;4.896;2023-11-22T10:11:35;100405.72;;;7.48;78.91
46942;BME280;32676;52.630;4.896;2023-11-22T10:14:04;100404.16;;;7.41;78.78
46942;BME280;32676;52.630;4.896;2023-11-22T10:16:30;100427.47;;;7.48;78.56
46942;BME280;32676;52.630;4.896;2023-11-22T10:18:57;100447.28;;;7.57;78.35
46942;BME280;32676;52.630;4.896;2023-11-22T10:21:25;100436.97;;;7.51;78.25
46942;BME280;32676;52.630;4.896;2023-11-22T10:23:54;100431.69;;;7.54;78.05
46942;BME280;32676;52.630;4.896;2023-11-22T10:26:23;100436.06;;;7.54;77.86
46942;BME280;32676;52.630;4.896;2023-11-22T10:28:50;100456.81;;;7.60;77.98
46942;BME280;32676;52.630;4.896;2023-11-22T10:31:16;100468.03;;;7.63;78.06
46942;BME280;32676;52.630;4.896;2023-11-22T10:33:43;100498.41;;;7.69;78.00
46942;BME280;32676;52.630;4.896;2023-11-22T10:36:09;100511.44;;;7.71;77.85
46942;BME280;32676;52.630;4.896;2023-11-22T10:38:37;100506.38;;;7.64;77.72
46942;BME280;32676;52.630;4.896;2023-11-22T10:41:04;100525.25;;;7.76;77.69
46942;BME280;32676;52.630;4.896;2023-11-22T10:43:34;100544.38;;;7.78;77.38
46942;BME280;32676;52.630;4.896;2023-11-22T10:46:02;100564.28;;;7.83;77.14
46942;BME280;32676;52.630;4.896;2023-11-22T10:48:30;100592.06;;;7.89;77.07
46942;BME280;32676;52.630;4.896;2023-11-22T10:51:00;100617.28;;;7.93;77.14
46942;BME280;32676;52.630;4.896;2023-11-22T10:55:26;100665.81;;;8.05;76.93
46942;BME280;32676;52.630;4.896;2023-11-22T10:57:55;100671.00;;;8.06;76.77
46942;BME280;32676;52.630;4.896;2023-11-22T11:00:23;100678.84;;;8.06;76.72
46942;BME280;32676;52.630;4.896;2023-11-22T11:02:57;100664.03;;;8.05;76.54
46942;BME280;32676;52.630;4.896;2023-11-22T11:05:30;100651.94;;;8.01;76.25
46942;BME280;32676;52.630;4.896;2023-11-22T11:08:00;100665.84;;;8.03;76.29
46942;BME280;32676;52.630;4.896;2023-11-22T11:10:31;100672.72;;;8.07;76.13
46942;BME280;32676;52.630;4.896;2023-11-22T11:12:58;100674.50;;;8.05;75.79
46942;BME280;32676;52.630;4.896;2023-11-22T11:15:25;100666.69;;;8.04;75.57
46942;BME280;32676;52.630;4.896;2023-11-22T11:17:53;100652.00;;;7.98;75.37
46942;BME280;32676;52.630;4.896;2023-11-22T11:20:22;100641.53;;;7.98;75.48
46942;BME280;32676;52.630;4.896;2023-11-22T11:22:49;100650.31;;;7.97;75.59
46942;BME280;32676;52.630;4.896;2023-11-22T11:25:17;100662.38;;;8.03;75.52
46942;BME280;32676;52.630;4.896;2023-11-22T11:27:55;100698.81;;;8.11;75.61
46942;BME280;32676;52.630;4.896;2023-11-22T11:30:49;100704.03;;;8.11;75.52
46942;BME280;32676;52.630;4.896;2023-11-22T11:33:19;100730.94;;;8.17;75.73
46942;BME280;32676;52.630;4.896;2023-11-22T11:35:52;100775.19;;;8.28;75.88
46942;BME280;32676;52.630;4.896;2023-11-22T11:38:19;100764.78;;;8.25;75.90
46942;BME280;32676;52.630;4.896;2023-11-22T11:40:48;100766.50;;;8.26;75.66
46942;BME280;32676;52.630;4.896;2023-11-22T11:43:20;100756.09;;;8.23;74.91
46942;BME280;32676;52.630;4.896;2023-11-22T11:45:47;100738.06;;;8.11;74.41
46942;BME280;32676;52.630;4.896;2023-11-22T11:48:16;100766.50;;;8.26;74.28
46942;BME280;32676;52.630;4.896;2023-11-22T11:50:43;100779.53;;;8.27;74.18
46942;BME280;32676;52.630;4.896;2023-11-22T11:53:09;100807.31;;;8.35;74.16
46942;BME280;32676;52.630;4.896;2023-11-22T11:55:36;100837.75;;;8.40;74.27
46942;BME280;32676;52.630;4.896;2023-11-22T11:58:04;100872.47;;;8.49;73.97
46942;BME280;32676;52.630;4.896;2023-11-22T12:00:34;100902.91;;;8.54;73.88
46942;BME280;32676;52.630;4.896;2023-11-22T12:03:00;100917.63;;;8.60;73.74
46942;BME280;32676;52.630;4.896;2023-11-22T12:05:27;100940.22;;;8.64;73.37
46942;BME280;32676;52.630;4.896;2023-11-22T12:07:54;100969.75;;;8.72;73.29
46942;BME280;32676;52.630;4.896;2023-11-22T12:10:21;100967.16;;;8.71;72.86
46942;BME280;32676;52.630;4.896;2023-11-22T12:12:49;100978.41;;;8.74;72.61
46942;BME280;32676;52.630;4.896;2023-11-22T12:15:17;100993.22;;;8.77;72.35
46942;BME280;32676;52.630;4.896;2023-11-22T12:17:48;101005.41;;;8.78;72.56
46942;BME280;32676;52.630;4.896;2023-11-22T12:20:15;100979.34;;;8.73;72.41
46942;BME280;32676;52.630;4.896;2023-11-22T12:22:42;100958.47;;;8.69;72.25
46942;BME280;32676;52.630;4.896;2023-11-22T12:25:10;100926.38;;;8.59;72.04
46942;BME280;32676;52.630;4.896;2023-11-22T12:27:41;100917.72;;;8.57;72.06
46942;BME280;32676;52.630;4.896;2023-11-22T12:30:09;100922.03;;;8.58;72.10
46942;BME280;32676;52.630;4.896;2023-11-22T12:32:38;100900.31;;;8.53;72.18
46942;BME280;32676;52.630;4.896;2023-11-22T12:35:08;100881.22;;;8.48;72.36
46942;BME280;32676;52.630;4.896;2023-11-22T12:37:37;100882.09;;;8.48;72.50
46942;BME280;32676;52.630;4.896;2023-11-22T12:40:09;100903.03;;;8.50;72.44
46942;BME280;32676;52.630;4.896;2023-11-22T12:42:46;100909.00;;;8.55;72.70
46942;BME280;32676;52.630;4.896;2023-11-22T12:45:18;100912.72;;;8.46;73.11
46942;BME280;32676;52.630;4.896;2023-11-22T12:47:45;100927.25;;;8.59;73.62
46942;BME280;32676;52.630;4.896;2023-11-22T12:50:33;100924.66;;;8.58;73.60
46942;BME280;32676;52.630;4.896;2023-11-22T12:53:07;100915.13;;;8.55;73.90
46942;BME280;32676;52.630;4.896;2023-11-22T12:55:34;100900.41;;;8.50;74.13
46942;BME280;32676;52.630;4.896;2023-11-22T12:58:01;100872.53;;;8.45;74.38
46942;BME280;32676;52.630;4.896;2023-11-22T13:00:28;100881.22;;;8.48;74.72
46942;BME280;32676;52.630;4.896;2023-11-22T13:02:55;100875.25;;;8.41;75.13
46942;BME280;32676;52.630;4.896;2023-11-22T13:05:22;100858.69;;;8.40;75.33
46942;BME280;32676;52.630;4.896;2023-11-22T13:07:50;100831.75;;;8.35;75.76
46942;BME280;32676;52.630;4.896;2023-11-22T13:10:18;100833.56;;;8.32;75.99